createdAt,value
2019-01-16T00:00:52.830Z,74.10
2019-01-16T00:03:55.582Z,74.10
2019-01-16T00:06:58.539Z,73.90
2019-01-16T00:10:02.490Z,73.80
2019-01-16T00:13:06.621Z,73.60
2019-01-16T00:16:05.389Z,73.60
2019-01-16T00:19:09.511Z,73.40
2019-01-16T00:22:00.700Z,73.20
2019-01-16T00:25:01.195Z,73.30
2019-01-16T00:28:04.028Z,73.00
2019-01-16T00:31:08.137Z,73.00
2019-01-16T00:34:02.610Z,73.20
2019-01-16T00:37:05.295Z,73.10
2019-01-16T00:40:09.435Z,73.00
2019-01-16T00:43:06.315Z,72.80
2019-01-16T00:49:08.993Z,72.80
2019-01-16T00:52:12.404Z,72.70
2019-01-16T00:55:13.453Z,72.70
2019-01-16T00:58:17.313Z,72.50
2019-01-16T01:01:18.370Z,72.50
2019-01-16T01:04:22.423Z,72.50
2019-01-16T01:07:26.110Z,72.50
2019-01-16T01:10:27.347Z,72.70
2019-01-16T01:13:31.070Z,72.80
2019-01-16T01:19:15.980Z,72.30
2019-01-16T01:22:19.179Z,72.30
2019-01-16T01:25:25.777Z,72.40
2019-01-16T01:28:16.445Z,72.50
2019-01-16T01:31:13.889Z,72.60
2019-01-16T01:34:07.131Z,72.50
2019-01-16T01:37:11.332Z,72.50
2019-01-16T01:40:07.016Z,72.40
2019-01-16T01:43:08.182Z,72.20
2019-01-16T01:46:14.261Z,71.90
2019-01-16T01:49:16.252Z,71.70
2019-01-16T01:52:20.004Z,71.30
2019-01-16T01:55:23.693Z,71.20
2019-01-16T01:58:26.450Z,71.10
2019-01-16T02:01:09.337Z,71.00
2019-01-16T02:04:13.242Z,71.00
2019-01-16T02:10:19.796Z,70.80
2019-01-16T02:13:20.668Z,70.70
2019-01-16T02:16:03.374Z,70.80
2019-01-16T02:18:58.039Z,70.70
2019-01-16T02:21:40.959Z,70.70
2019-01-16T02:27:40.177Z,70.50
2019-01-16T02:30:33.957Z,70.40
2019-01-16T02:33:16.737Z,70.50
2019-01-16T02:39:24.949Z,70.60
2019-01-16T02:42:28.321Z,70.70
2019-01-16T02:45:35.144Z,70.50
2019-01-16T02:48:38.030Z,70.10
2019-01-16T02:51:40.851Z,70.20
2019-01-16T02:54:44.812Z,70.40
2019-01-16T02:57:41.240Z,70.40
2019-01-16T03:00:38.656Z,70.50
2019-01-16T03:03:38.528Z,70.40
2019-01-16T03:06:41.353Z,70.30
2019-01-16T03:09:44.005Z,70.40
2019-01-16T03:12:33.305Z,70.60
2019-01-16T03:15:34.691Z,70.50
2019-01-16T03:18:31.943Z,70.30
2019-01-16T03:21:33.799Z,70.30
2019-01-16T03:24:39.769Z,70.30
2019-01-16T03:27:40.777Z,70.10
2019-01-16T03:30:46.017Z,70.30
2019-01-16T03:33:47.377Z,70.40
2019-01-16T03:36:51.195Z,70.50
2019-01-16T03:39:33.731Z,70.60
2019-01-16T03:42:40.158Z,71.00
2019-01-16T03:45:22.535Z,71.00
2019-01-16T03:48:29.408Z,71.40
2019-01-16T03:51:30.141Z,71.40
2019-01-16T03:57:04.361Z,71.40
2019-01-16T04:00:08.439Z,71.20
2019-01-16T04:05:56.733Z,70.70
2019-01-16T04:11:54.960Z,70.60
2019-01-16T04:14:46.127Z,70.20
2019-01-16T04:17:29.565Z,70.00
2019-01-16T04:20:32.292Z,69.50
2019-01-16T04:23:15.345Z,69.30
2019-01-16T04:26:23.749Z,69.40
2019-01-16T04:29:25.373Z,69.30
2019-01-16T04:32:27.218Z,68.90
2019-01-16T04:35:31.104Z,68.60
2019-01-16T04:38:38.179Z,68.40
2019-01-16T04:41:41.788Z,68.50
2019-01-16T04:44:44.730Z,68.70
2019-01-16T04:47:48.008Z,68.70
2019-01-16T04:53:52.454Z,68.30
2019-01-16T04:56:53.750Z,68.10
2019-01-16T04:59:36.492Z,68.10
2019-01-16T05:02:37.570Z,68.20
2019-01-16T05:05:25.814Z,68.10
2019-01-16T05:08:29.823Z,68.30
2019-01-16T05:11:33.936Z,68.10
2019-01-16T05:14:26.419Z,68.00
2019-01-16T05:17:08.936Z,67.80
2019-01-16T05:26:00.721Z,67.80
2019-01-16T05:29:03.494Z,67.90
2019-01-16T05:31:48.006Z,67.90
2019-01-16T05:34:52.347Z,68.00
2019-01-16T05:37:54.364Z,67.80
2019-01-16T05:40:56.364Z,68.00
2019-01-16T05:44:00.364Z,68.40
2019-01-16T05:50:01.037Z,68.80
2019-01-16T05:53:03.989Z,68.50
2019-01-16T05:56:07.054Z,68.70
2019-01-16T05:59:07.785Z,68.70
2019-01-16T06:02:14.120Z,68.40
2019-01-16T06:05:07.142Z,68.70
2019-01-16T06:08:10.034Z,68.60
2019-01-16T06:11:16.868Z,68.60
2019-01-16T06:17:06.851Z,68.20
2019-01-16T06:23:18.080Z,67.80
2019-01-16T06:26:12.418Z,67.20
2019-01-16T06:29:16.456Z,67.20
2019-01-16T06:32:17.156Z,67.40
2019-01-16T06:34:59.613Z,67.30
2019-01-16T06:41:03.413Z,67.10
2019-01-16T06:44:04.626Z,67.00
2019-01-16T06:47:08.781Z,67.10
2019-01-16T06:50:16.342Z,67.10
2019-01-16T06:53:21.200Z,66.80
2019-01-16T06:56:23.413Z,66.60
2019-01-16T06:59:22.715Z,66.30
2019-01-16T07:05:29.604Z,66.10
2019-01-16T07:08:26.087Z,66.00
2019-01-16T07:11:08.570Z,65.70
2019-01-16T07:14:08.276Z,65.10
2019-01-16T07:16:51.164Z,65.30
2019-01-16T07:25:40.244Z,64.90
2019-01-16T07:28:30.413Z,65.00
2019-01-16T07:31:13.411Z,64.70
2019-01-16T07:34:17.178Z,64.40
2019-01-16T07:37:10.502Z,65.20
2019-01-16T07:40:11.431Z,64.10
2019-01-16T07:43:15.437Z,64.10
2019-01-16T07:46:16.722Z,64.00
2019-01-16T07:48:59.471Z,63.60
2019-01-16T07:55:04.891Z,62.80
2019-01-16T07:58:06.792Z,62.60
2019-01-16T08:01:10.520Z,62.30
2019-01-16T08:04:13.530Z,62.10
2019-01-16T08:07:15.372Z,61.50
2019-01-16T08:13:00.205Z,59.20
2019-01-16T08:16:04.022Z,59.20
2019-01-16T08:19:00.378Z,57.80
2019-01-16T08:24:48.656Z,55.40
2019-01-16T08:27:51.427Z,54.50
2019-01-16T08:30:58.414Z,54.20
2019-01-16T08:33:58.024Z,53.20
2019-01-16T08:37:01.771Z,52.50
2019-01-16T08:40:05.365Z,51.80
2019-01-16T08:42:48.322Z,51.30
2019-01-16T08:45:51.252Z,48.30
2019-01-16T08:48:33.937Z,44.10
2019-01-16T08:54:42.261Z,32.40
2019-01-16T08:57:51.137Z,30.50
2019-01-16T09:00:46.061Z,33.40
2019-01-16T09:03:51.022Z,36.30
2019-01-16T09:06:54.294Z,39.20
2019-01-16T09:09:58.218Z,41.00
2019-01-16T09:13:05.447Z,42.70
2019-01-16T09:18:56.192Z,39.80
2019-01-16T09:21:48.950Z,34.10
2019-01-16T09:24:55.516Z,31.10
2019-01-16T09:27:56.543Z,29.20
2019-01-16T09:30:39.578Z,27.20
2019-01-16T09:36:34.325Z,23.00
2019-01-16T09:39:36.014Z,22.20
2019-01-16T09:42:18.703Z,22.00
2019-01-16T09:45:21.362Z,21.70
2019-01-16T09:48:13.866Z,21.00
2019-01-16T09:51:13.369Z,20.30
2019-01-16T09:54:14.219Z,20.20
2019-01-16T09:57:20.197Z,21.00
2019-01-16T10:00:22.309Z,20.80
2019-01-16T10:03:26.250Z,20.80
2019-01-16T10:06:28.011Z,19.10
2019-01-16T10:09:30.174Z,18.00
2019-01-16T10:12:13.108Z,18.70
2019-01-16T10:15:17.037Z,19.20
2019-01-16T10:18:20.897Z,20.50
2019-01-16T10:21:15.986Z,21.30
2019-01-16T10:24:20.032Z,21.50
2019-01-16T10:27:20.909Z,20.80
2019-01-16T10:30:24.949Z,21.20
2019-01-16T10:36:13.189Z,23.20
2019-01-16T10:39:19.623Z,23.70
2019-01-16T10:42:02.660Z,23.20
2019-01-16T10:45:07.009Z,21.60
2019-01-16T10:47:49.961Z,19.90
2019-01-16T10:50:52.882Z,18.90
2019-01-16T10:53:36.010Z,17.90
2019-01-16T10:56:42.199Z,16.70
2019-01-16T10:59:42.925Z,16.50
2019-01-16T11:02:45.433Z,16.80
2019-01-16T11:05:48.012Z,16.20
2019-01-16T11:08:50.894Z,15.60
2019-01-16T11:11:53.243Z,15.20
2019-01-16T11:14:56.981Z,15.60
2019-01-16T11:18:03.923Z,16.80
2019-01-16T11:24:11.599Z,19.00
2019-01-16T11:27:17.005Z,21.20
2019-01-16T11:30:18.942Z,24.20
2019-01-16T11:33:25.430Z,26.80
2019-01-16T11:39:13.291Z,29.70
2019-01-16T11:42:16.198Z,29.40
2019-01-16T11:44:59.016Z,29.20
2019-01-16T11:48:01.570Z,28.50
2019-01-16T11:51:05.298Z,28.20
2019-01-16T11:54:08.073Z,27.70
2019-01-16T11:56:57.471Z,27.70
2019-01-16T11:59:49.970Z,28.50
2019-01-16T12:02:42.668Z,29.40
2019-01-16T12:05:45.687Z,30.00
2019-01-16T12:08:48.657Z,30.80
2019-01-16T12:11:51.455Z,32.10
2019-01-16T12:14:54.173Z,33.70
2019-01-16T12:17:51.835Z,35.10
2019-01-16T12:20:59.571Z,35.70
2019-01-16T12:27:04.058Z,35.80
2019-01-16T12:30:07.198Z,36.60
2019-01-16T12:33:10.851Z,37.80
2019-01-16T12:36:14.675Z,38.10
2019-01-16T12:39:18.897Z,38.60
2019-01-16T12:42:22.820Z,39.00
2019-01-16T12:45:26.983Z,37.00
2019-01-16T12:48:30.719Z,33.10
2019-01-16T12:51:34.897Z,33.20
2019-01-16T12:54:33.071Z,29.40
2019-01-16T12:57:33.723Z,28.00
2019-01-16T13:00:36.094Z,28.00
2019-01-16T13:03:39.615Z,28.20
2019-01-16T13:06:41.066Z,28.20
2019-01-16T13:09:24.014Z,29.10
2019-01-16T13:12:27.485Z,31.00
2019-01-16T13:15:29.704Z,33.80
2019-01-16T13:18:25.647Z,34.90
2019-01-16T13:21:39.978Z,35.30
2019-01-16T13:24:35.852Z,35.80
2019-01-16T13:27:41.842Z,36.10
2019-01-16T13:30:45.549Z,36.00
2019-01-16T13:33:48.513Z,36.70
2019-01-16T13:36:55.501Z,37.90
2019-01-16T13:39:53.374Z,38.90
2019-01-16T13:42:56.416Z,39.40
2019-01-16T13:48:45.153Z,40.40
2019-01-16T13:54:51.725Z,42.00
2019-01-16T14:00:40.009Z,42.70
2019-01-16T14:09:53.024Z,43.10
2019-01-16T14:15:55.147Z,43.50
2019-01-16T14:19:00.955Z,44.00
2019-01-16T14:22:03.919Z,44.50
2019-01-16T14:25:05.899Z,44.90
2019-01-16T14:28:06.420Z,45.30
2019-01-16T14:36:55.752Z,46.20
2019-01-16T14:39:57.828Z,46.50
2019-01-16T14:43:01.934Z,46.90
2019-01-16T14:46:05.573Z,46.90
2019-01-16T14:48:47.771Z,47.20
2019-01-16T14:51:50.662Z,47.50
2019-01-16T14:54:33.272Z,47.30
2019-01-16T15:00:35.769Z,47.70
2019-01-16T15:03:41.128Z,47.90
2019-01-16T15:06:46.798Z,48.10
2019-01-16T15:09:46.415Z,48.50
2019-01-16T15:12:49.894Z,48.70
2019-01-16T15:15:52.537Z,49.10
2019-01-16T15:18:59.776Z,50.20
2019-01-16T15:21:49.036Z,49.80
2019-01-16T15:24:52.045Z,50.10
2019-01-16T15:27:55.013Z,50.20
2019-01-16T15:33:58.576Z,50.40
2019-01-16T15:37:00.258Z,50.50
2019-01-16T15:40:02.403Z,50.70
2019-01-16T15:43:04.340Z,51.30
2019-01-16T15:46:06.420Z,51.40
2019-01-16T15:48:49.122Z,51.70
2019-01-16T15:51:52.644Z,51.90
2019-01-16T15:54:35.749Z,52.00
2019-01-16T15:57:33.111Z,52.10
2019-01-16T16:00:37.497Z,52.00
2019-01-16T16:03:41.326Z,52.10
2019-01-16T16:06:45.310Z,52.30
2019-01-16T16:09:46.362Z,52.40
2019-01-16T16:12:50.367Z,52.70
2019-01-16T16:15:43.653Z,52.70
2019-01-16T16:18:47.774Z,52.60
2019-01-16T16:21:50.642Z,52.70
2019-01-16T16:24:54.821Z,52.90
2019-01-16T16:27:52.941Z,53.00
2019-01-16T16:30:57.305Z,53.40
2019-01-16T16:33:59.965Z,53.70
2019-01-16T16:37:04.004Z,54.00
2019-01-16T16:40:02.211Z,54.30
2019-01-16T16:42:53.654Z,54.40
2019-01-16T16:45:59.797Z,54.50
2019-01-16T16:48:42.893Z,54.80
2019-01-16T16:51:50.180Z,55.00
2019-01-16T16:54:54.170Z,54.70
2019-01-16T16:57:48.501Z,54.80
2019-01-16T17:00:52.252Z,55.00
2019-01-16T17:09:22.401Z,55.30
2019-01-16T17:15:29.230Z,55.50
2019-01-16T17:18:21.675Z,55.70
2019-01-16T17:21:28.852Z,56.20
2019-01-16T17:24:32.690Z,56.50
2019-01-16T17:27:30.134Z,56.80
2019-01-16T17:30:34.556Z,58.00
2019-01-16T17:33:17.233Z,58.70
2019-01-16T17:39:03.738Z,59.00
2019-01-16T17:42:06.389Z,59.20
2019-01-16T17:45:12.982Z,59.40
2019-01-16T17:48:16.926Z,58.60
2019-01-16T17:51:20.670Z,58.50
2019-01-16T17:54:24.665Z,58.90
2019-01-16T17:57:29.917Z,59.60
2019-01-16T18:00:36.622Z,59.60
2019-01-16T18:03:38.754Z,59.40
2019-01-16T18:06:45.722Z,59.10
2019-01-16T18:09:28.531Z,58.90
2019-01-16T18:12:34.317Z,58.70
2019-01-16T18:15:37.979Z,58.60
2019-01-16T18:18:40.415Z,58.70
2019-01-16T18:21:44.506Z,58.80
2019-01-16T18:24:45.347Z,59.20
2019-01-16T18:27:47.410Z,59.40
2019-01-16T18:33:35.564Z,59.90
2019-01-16T18:36:36.272Z,60.10
2019-01-16T18:39:18.935Z,60.50
2019-01-16T18:42:22.149Z,60.90
2019-01-16T18:45:23.722Z,61.20
2019-01-16T18:48:26.916Z,61.60
2019-01-16T18:51:26.000Z,61.70
2019-01-16T18:54:33.168Z,62.00
2019-01-16T19:00:21.661Z,61.50
2019-01-16T19:06:27.194Z,61.90
2019-01-16T19:09:30.672Z,61.80
2019-01-16T19:12:34.425Z,62.00
2019-01-16T19:15:23.996Z,62.90
2019-01-16T19:18:28.157Z,63.70
2019-01-16T19:21:17.726Z,63.70
2019-01-16T19:24:12.353Z,64.10
2019-01-16T19:27:07.300Z,64.70
2019-01-16T19:30:03.758Z,64.60
2019-01-16T19:33:09.999Z,64.60
2019-01-16T19:36:12.701Z,64.70
2019-01-16T19:41:57.106Z,64.50
2019-01-16T19:45:00.301Z,64.60
2019-01-16T19:48:03.112Z,64.80
2019-01-16T19:51:05.778Z,64.80
2019-01-16T19:54:10.083Z,65.20
2019-01-16T19:57:12.034Z,65.60
2019-01-16T20:03:29.619Z,67.30
2019-01-16T20:06:26.634Z,68.90
2019-01-16T20:09:29.897Z,68.50
2019-01-16T20:15:55.368Z,68.20
2019-01-16T20:18:56.527Z,68.60
2019-01-16T20:22:00.309Z,68.40
2019-01-16T20:25:06.224Z,67.70
2019-01-16T20:28:04.588Z,67.80
2019-01-16T20:31:07.389Z,67.90
2019-01-16T20:34:10.481Z,67.90
2019-01-16T20:36:59.719Z,67.80
2019-01-16T20:40:03.833Z,67.60
2019-01-16T20:43:07.573Z,67.60
2019-01-16T20:46:02.764Z,68.70
2019-01-16T20:49:06.486Z,68.70
2019-01-16T20:51:55.779Z,68.90
2019-01-16T20:54:59.889Z,68.90
2019-01-16T20:58:03.996Z,69.90
2019-01-16T21:01:06.942Z,70.20
2019-01-16T21:04:10.056Z,71.70
2019-01-16T21:07:12.748Z,72.70
2019-01-16T21:10:17.132Z,73.00
2019-01-16T21:13:20.399Z,73.10
2019-01-16T21:16:27.615Z,73.00
2019-01-16T21:22:32.275Z,73.30
2019-01-16T21:25:36.241Z,73.60
2019-01-16T21:28:34.053Z,72.70
2019-01-16T21:31:35.254Z,72.50
2019-01-16T21:34:18.046Z,72.50
2019-01-16T21:37:21.155Z,73.40
2019-01-16T21:40:03.865Z,73.90
2019-01-16T21:43:11.098Z,74.30
2019-01-16T21:46:02.693Z,74.30
2019-01-16T21:48:55.112Z,74.40
2019-01-16T21:51:58.710Z,74.60
2019-01-16T21:55:02.067Z,74.70
2019-01-16T21:58:04.060Z,76.00
2019-01-16T22:03:50.141Z,76.50
2019-01-16T22:06:53.294Z,77.20
2019-01-16T22:09:56.523Z,77.40
2019-01-16T22:13:02.158Z,77.70
2019-01-16T22:16:05.038Z,77.40
2019-01-16T22:19:07.153Z,76.50
2019-01-16T22:22:01.486Z,75.90
2019-01-16T22:25:02.400Z,75.80
2019-01-16T22:28:06.448Z,75.70
2019-01-16T22:31:07.077Z,75.60
2019-01-16T22:34:14.454Z,76.10
2019-01-16T22:40:21.648Z,77.40
2019-01-16T22:43:25.532Z,77.40
2019-01-16T22:46:08.643Z,77.90
2019-01-16T22:51:55.053Z,77.70
2019-01-16T22:57:40.354Z,77.70
2019-01-16T23:03:46.638Z,79.00
2019-01-16T23:06:51.997Z,79.90
2019-01-16T23:09:53.753Z,80.40
2019-01-16T23:13:00.066Z,80.20
2019-01-16T23:16:01.221Z,79.30
2019-01-16T23:19:03.574Z,78.30
2019-01-16T23:22:07.645Z,77.90
2019-01-16T23:25:11.466Z,77.80
2019-01-16T23:27:54.374Z,77.80
2019-01-16T23:30:57.363Z,78.20
2019-01-16T23:33:46.659Z,78.20
2019-01-16T23:36:47.117Z,78.00
2019-01-16T23:39:50.777Z,78.20
2019-01-16T23:42:53.862Z,77.90
2019-01-16T23:45:43.123Z,77.80
2019-01-16T23:48:44.178Z,77.80
2019-01-16T23:51:45.941Z,77.80
2019-01-16T23:54:35.198Z,78.00
2019-01-16T23:57:24.412Z,77.90
